createdAt,value
2022-11-26T00:02:23.017Z,12.70
2022-11-26T00:04:51.095Z,12.70
2022-11-26T00:07:26.106Z,12.70
2022-11-26T00:09:55.059Z,12.70
2022-11-26T00:12:29.065Z,12.70
2022-11-26T00:14:56.383Z,12.70
2022-11-26T00:17:23.746Z,12.70
2022-11-26T00:19:50.628Z,12.80
2022-11-26T00:22:25.117Z,12.80
2022-11-26T00:24:53.049Z,12.80
2022-11-26T00:27:20.411Z,12.80
2022-11-26T00:29:47.239Z,12.80
2022-11-26T00:32:19.642Z,12.80
2022-11-26T00:34:46.569Z,12.80
2022-11-26T00:37:50.902Z,12.80
2022-11-26T00:40:26.961Z,12.80
2022-11-26T00:43:00.041Z,12.80
2022-11-26T00:45:30.893Z,12.80
2022-11-26T00:47:57.796Z,12.80
2022-11-26T00:50:27.140Z,12.90
2022-11-26T00:52:56.684Z,12.90
2022-11-26T00:55:39.829Z,12.90
2022-11-26T00:58:07.415Z,12.80
2022-11-26T01:00:35.570Z,12.90
2022-11-26T01:03:02.914Z,12.80
2022-11-26T01:05:33.352Z,12.80
2022-11-26T01:08:02.973Z,12.80
2022-11-26T01:10:30.485Z,12.80
2022-11-26T01:12:57.513Z,12.90
2022-11-26T01:15:26.825Z,12.90
2022-11-26T01:17:54.015Z,12.90
2022-11-26T01:20:30.370Z,12.90
2022-11-26T01:22:58.644Z,12.90
2022-11-26T01:25:26.823Z,12.90
2022-11-26T01:27:53.640Z,12.90
2022-11-26T01:30:30.714Z,12.90
2022-11-26T01:32:58.057Z,12.90
2022-11-26T01:35:24.975Z,12.90
2022-11-26T01:37:51.755Z,12.90
2022-11-26T01:40:26.014Z,12.90
2022-11-26T01:43:04.941Z,12.90
2022-11-26T01:45:32.629Z,12.80
2022-11-26T01:47:59.617Z,12.80
2022-11-26T01:50:29.452Z,12.80
2022-11-26T01:52:58.342Z,12.80
2022-11-26T01:55:27.359Z,12.80
2022-11-26T01:57:54.809Z,12.80
2022-11-26T02:00:21.888Z,12.80
2022-11-26T02:02:49.104Z,12.80
2022-11-26T02:05:24.131Z,12.80
2022-11-26T02:07:52.825Z,12.70
2022-11-26T02:10:19.966Z,12.70
2022-11-26T02:12:47.555Z,12.70
2022-11-26T02:15:14.583Z,12.70
2022-11-26T02:17:57.903Z,12.70
2022-11-26T02:20:45.781Z,12.70
2022-11-26T02:23:30.565Z,12.70
2022-11-26T02:26:29.644Z,12.70
2022-11-26T02:29:15.791Z,12.70
2022-11-26T02:32:00.790Z,12.70
2022-11-26T02:34:39.974Z,12.70
2022-11-26T02:37:18.874Z,12.60
2022-11-26T02:39:46.827Z,12.70
2022-11-26T02:42:29.950Z,12.60
2022-11-26T02:45:02.290Z,12.60
2022-11-26T02:47:30.356Z,12.60
2022-11-26T02:50:01.067Z,12.60
2022-11-26T02:52:28.954Z,12.60
2022-11-26T02:54:56.792Z,12.70
2022-11-26T02:57:28.220Z,12.60
2022-11-26T02:59:55.594Z,12.70
2022-11-26T03:02:31.784Z,12.70
2022-11-26T03:05:01.276Z,12.70
2022-11-26T03:07:31.016Z,12.70
2022-11-26T03:09:59.805Z,12.70
2022-11-26T03:12:27.273Z,12.70
2022-11-26T03:14:54.688Z,12.70
2022-11-26T03:17:22.249Z,12.70
2022-11-26T03:19:49.114Z,12.70
2022-11-26T03:22:16.698Z,12.70
2022-11-26T03:24:43.645Z,12.70
2022-11-26T03:27:10.412Z,12.70
2022-11-26T03:29:37.340Z,12.70
2022-11-26T03:32:04.489Z,12.70
2022-11-26T03:34:31.439Z,12.70
2022-11-26T03:36:58.353Z,12.70
2022-11-26T03:39:25.323Z,12.70
2022-11-26T03:41:52.075Z,12.70
2022-11-26T03:44:18.836Z,12.70
2022-11-26T03:46:45.614Z,12.70
2022-11-26T03:49:12.483Z,12.70
2022-11-26T03:51:39.297Z,12.70
2022-11-26T03:54:06.087Z,12.70
2022-11-26T03:56:32.904Z,12.70
2022-11-26T03:58:59.755Z,12.70
2022-11-26T04:01:26.710Z,12.70
2022-11-26T04:03:53.572Z,12.70
2022-11-26T04:06:20.885Z,12.80
2022-11-26T04:08:47.692Z,12.70
2022-11-26T04:11:14.882Z,12.70
2022-11-26T04:13:41.808Z,12.70
2022-11-26T04:16:09.046Z,12.70
2022-11-26T04:18:36.274Z,12.70
2022-11-26T04:21:05.106Z,12.70
2022-11-26T04:23:31.885Z,12.70
2022-11-26T04:25:58.696Z,12.60
2022-11-26T04:28:25.520Z,12.60
2022-11-26T04:30:52.458Z,12.60
2022-11-26T04:33:19.359Z,12.60
2022-11-26T04:35:46.406Z,12.60
2022-11-26T04:38:13.363Z,12.50
2022-11-26T04:40:40.184Z,12.50
2022-11-26T04:43:07.067Z,12.50
2022-11-26T04:45:34.020Z,12.50
2022-11-26T04:48:00.829Z,12.40
2022-11-26T04:50:27.751Z,12.40
2022-11-26T04:52:54.569Z,12.40
2022-11-26T04:55:21.384Z,12.40
2022-11-26T04:57:48.565Z,12.30
2022-11-26T05:00:17.724Z,12.30
2022-11-26T05:02:45.195Z,12.30
2022-11-26T05:05:12.601Z,12.30
2022-11-26T05:07:40.234Z,12.30
2022-11-26T05:10:08.638Z,12.20
2022-11-26T05:12:36.230Z,12.20
2022-11-26T05:15:04.461Z,12.20
2022-11-26T05:17:31.858Z,12.10
2022-11-26T05:19:58.675Z,12.10
2022-11-26T05:22:25.459Z,12.00
2022-11-26T05:24:52.218Z,12.00
2022-11-26T05:27:19.322Z,12.00
2022-11-26T05:29:46.088Z,12.00
2022-11-26T05:32:12.981Z,11.90
2022-11-26T05:34:40.447Z,11.90
2022-11-26T05:37:07.603Z,11.90
2022-11-26T05:39:34.455Z,11.80
2022-11-26T05:42:06.171Z,11.80
2022-11-26T05:44:36.094Z,11.80
2022-11-26T05:47:03.152Z,11.80
2022-11-26T05:49:29.936Z,11.70
2022-11-26T05:51:56.910Z,11.70
2022-11-26T05:54:23.680Z,11.70
2022-11-26T05:56:53.085Z,11.70
2022-11-26T05:59:24.488Z,11.60
2022-11-26T06:01:51.359Z,11.60
2022-11-26T06:04:18.132Z,11.50
2022-11-26T06:06:44.997Z,11.50
2022-11-26T06:09:11.790Z,11.50
2022-11-26T06:11:38.568Z,11.50
2022-11-26T06:14:05.527Z,11.40
2022-11-26T06:16:32.442Z,11.40
2022-11-26T06:18:59.267Z,11.40
2022-11-26T06:21:26.133Z,11.30
2022-11-26T06:23:58.903Z,11.30
2022-11-26T06:26:26.506Z,11.20
2022-11-26T06:28:53.360Z,11.20
2022-11-26T06:31:20.360Z,11.20
2022-11-26T06:33:47.240Z,11.10
2022-11-26T06:36:14.363Z,11.10
2022-11-26T06:38:41.127Z,11.10
2022-11-26T06:41:08.780Z,11.00
2022-11-26T06:43:35.935Z,11.00
2022-11-26T06:46:10.086Z,11.00
2022-11-26T06:48:38.175Z,11.00
2022-11-26T06:51:10.480Z,11.00
2022-11-26T06:53:37.746Z,10.90
2022-11-26T06:56:18.373Z,10.90
2022-11-26T06:58:47.446Z,10.90
2022-11-26T07:01:19.978Z,10.90
2022-11-26T07:03:47.773Z,10.90
2022-11-26T07:06:23.183Z,10.90
2022-11-26T07:08:52.018Z,10.90
2022-11-26T07:11:20.196Z,10.90
2022-11-26T07:13:47.097Z,10.90
2022-11-26T07:16:14.360Z,10.80
2022-11-26T07:18:41.661Z,10.90
2022-11-26T07:21:11.128Z,10.80
2022-11-26T07:23:38.542Z,10.80
2022-11-26T07:26:07.485Z,10.80
2022-11-26T07:28:35.463Z,10.80
2022-11-26T07:31:05.490Z,10.80
2022-11-26T07:33:32.553Z,10.80
2022-11-26T07:36:09.285Z,10.80
2022-11-26T07:38:36.078Z,10.80
2022-11-26T07:41:10.622Z,10.70
2022-11-26T07:43:40.099Z,10.70
2022-11-26T07:46:09.074Z,10.70
2022-11-26T07:48:38.225Z,10.70
2022-11-26T07:51:05.437Z,10.70
2022-11-26T07:53:33.804Z,10.70
2022-11-26T07:56:03.541Z,10.70
2022-11-26T07:58:30.761Z,10.70
2022-11-26T08:00:57.573Z,10.70
2022-11-26T08:03:24.376Z,10.70
2022-11-26T08:05:51.278Z,10.70
2022-11-26T08:08:18.116Z,10.70
2022-11-26T08:10:45.045Z,10.70
2022-11-26T08:13:11.911Z,10.70
2022-11-26T08:15:39.125Z,10.70
2022-11-26T08:18:06.022Z,10.80
2022-11-26T08:20:32.785Z,10.80
2022-11-26T08:22:59.553Z,10.80
2022-11-26T08:25:26.359Z,10.90
2022-11-26T08:27:53.125Z,10.90
2022-11-26T08:30:19.920Z,11.00
2022-11-26T08:32:46.671Z,11.00
2022-11-26T08:35:13.486Z,11.10
2022-11-26T08:37:42.396Z,11.20
2022-11-26T08:40:10.673Z,11.30
2022-11-26T08:42:39.608Z,11.30
2022-11-26T08:45:07.039Z,11.40
2022-11-26T08:47:33.995Z,11.50
2022-11-26T08:50:00.963Z,11.60
2022-11-26T08:52:27.912Z,11.70
2022-11-26T08:54:54.701Z,11.70
2022-11-26T08:57:21.546Z,11.80
2022-11-26T08:59:48.398Z,11.90
2022-11-26T09:02:18.763Z,11.90
2022-11-26T09:04:45.972Z,12.00
2022-11-26T09:07:13.125Z,12.00
2022-11-26T09:09:40.013Z,12.10
2022-11-26T09:12:07.805Z,12.10
2022-11-26T09:14:40.075Z,12.10
2022-11-26T09:17:07.855Z,12.20
2022-11-26T09:19:34.774Z,12.20
2022-11-26T09:22:01.588Z,12.30
2022-11-26T09:24:28.601Z,12.30
2022-11-26T09:26:55.661Z,12.30
2022-11-26T09:29:23.587Z,12.30
2022-11-26T09:34:39.336Z,12.30
2022-11-26T09:37:06.726Z,12.30
2022-11-26T09:39:33.857Z,12.30
2022-11-26T09:42:13.887Z,12.30
2022-11-26T09:45:02.969Z,12.40
2022-11-26T09:47:43.063Z,12.40
2022-11-26T09:50:22.334Z,12.40
2022-11-26T09:53:22.121Z,12.40
2022-11-26T09:55:51.886Z,12.40
2022-11-26T09:58:38.885Z,12.40
2022-11-26T10:01:07.436Z,12.40
2022-11-26T10:03:37.011Z,12.40
2022-11-26T10:06:18.437Z,12.40
2022-11-26T10:09:17.143Z,12.40
2022-11-26T10:12:02.057Z,12.40
2022-11-26T10:14:31.914Z,12.40
2022-11-26T10:17:22.467Z,12.40
2022-11-26T10:20:24.343Z,12.40
2022-11-26T10:23:11.820Z,12.40
2022-11-26T10:25:47.424Z,12.40
2022-11-26T10:28:27.031Z,12.40
2022-11-26T10:31:03.568Z,12.40
2022-11-26T10:33:41.469Z,12.40
2022-11-26T10:36:19.217Z,12.40
2022-11-26T10:38:45.987Z,12.40
2022-11-26T10:41:13.253Z,12.40
2022-11-26T10:43:40.116Z,12.50
2022-11-26T10:46:07.013Z,12.50
2022-11-26T10:48:35.069Z,12.50
2022-11-26T10:51:26.666Z,12.60
2022-11-26T10:54:05.272Z,12.60
2022-11-26T10:56:35.482Z,12.60
2022-11-26T10:59:06.167Z,12.70
2022-11-26T11:01:37.633Z,12.70
2022-11-26T11:04:30.257Z,12.70
2022-11-26T11:06:58.191Z,12.70
2022-11-26T11:09:35.637Z,12.80
2022-11-26T11:12:08.300Z,12.80
2022-11-26T11:14:39.623Z,12.80
2022-11-26T11:17:19.513Z,12.80
2022-11-26T11:19:46.345Z,12.80
2022-11-26T11:22:22.658Z,12.80
2022-11-26T11:24:49.566Z,12.80
2022-11-26T11:27:39.371Z,12.80
2022-11-26T11:30:07.262Z,12.80
2022-11-26T11:32:37.751Z,12.80
2022-11-26T11:35:22.070Z,12.80
2022-11-26T11:37:51.806Z,12.80
2022-11-26T11:40:25.156Z,12.80
2022-11-26T11:42:59.326Z,12.70
2022-11-26T11:45:45.523Z,12.70
2022-11-26T11:48:43.422Z,12.70
2022-11-26T11:51:44.131Z,12.70
2022-11-26T11:54:39.168Z,12.70
2022-11-26T11:57:18.639Z,12.70
2022-11-26T12:00:10.550Z,12.70
2022-11-26T12:03:01.707Z,12.70
2022-11-26T12:05:51.780Z,12.70
2022-11-26T12:08:39.234Z,12.70
2022-11-26T12:11:27.889Z,12.60
2022-11-26T12:14:19.501Z,12.60
2022-11-26T12:16:50.496Z,12.60
2022-11-26T12:19:36.133Z,12.60
2022-11-26T12:22:21.582Z,12.60
2022-11-26T12:24:57.340Z,12.60
2022-11-26T12:28:00.245Z,12.60
2022-11-26T12:30:37.258Z,12.60
2022-11-26T12:33:27.925Z,12.60
2022-11-26T12:35:58.930Z,12.60
2022-11-26T12:38:31.454Z,12.60
2022-11-26T12:41:07.384Z,12.60
2022-11-26T12:43:50.607Z,12.60
2022-11-26T12:46:22.636Z,12.60
2022-11-26T12:48:53.555Z,12.60
2022-11-26T12:51:42.732Z,12.60
2022-11-26T12:54:33.533Z,12.60
2022-11-26T12:57:20.183Z,12.60
2022-11-26T12:59:54.501Z,12.60
2022-11-26T13:02:21.475Z,12.60
2022-11-26T13:04:48.865Z,12.60
2022-11-26T13:07:54.069Z,12.60
2022-11-26T13:10:26.772Z,12.60
2022-11-26T13:12:59.390Z,12.60
2022-11-26T13:15:39.395Z,12.60
2022-11-26T13:18:33.569Z,12.60
2022-11-26T13:21:09.256Z,12.60
2022-11-26T13:24:18.639Z,12.60
2022-11-26T13:27:03.347Z,12.50
2022-11-26T13:30:00.859Z,12.60
2022-11-26T13:32:36.530Z,12.60
2022-11-26T13:35:18.461Z,12.50
2022-11-26T13:37:54.625Z,12.50
2022-11-26T13:40:35.245Z,12.60
2022-11-26T13:43:20.607Z,12.60
2022-11-26T13:46:15.448Z,12.50
2022-11-26T13:48:56.385Z,12.60
2022-11-26T13:51:49.435Z,12.60
2022-11-26T13:54:18.309Z,12.50
2022-11-26T13:56:46.405Z,12.60
2022-11-26T13:59:22.844Z,12.60
2022-11-26T14:01:53.931Z,12.60
2022-11-26T14:04:23.772Z,12.60
2022-11-26T14:07:06.035Z,12.60
2022-11-26T14:09:42.007Z,12.60
2022-11-26T14:12:09.751Z,12.60
2022-11-26T14:14:39.332Z,12.60
2022-11-26T14:17:18.267Z,12.60
2022-11-26T14:19:45.073Z,12.60
2022-11-26T14:22:21.174Z,12.60
2022-11-26T14:24:48.374Z,12.60
2022-11-26T14:27:21.833Z,12.60
2022-11-26T14:29:58.039Z,12.60
2022-11-26T14:32:26.866Z,12.60
2022-11-26T14:34:54.889Z,12.60
2022-11-26T14:37:27.072Z,12.60
2022-11-26T14:40:02.218Z,12.60
2022-11-26T14:42:29.681Z,12.60
2022-11-26T14:45:04.474Z,12.70
2022-11-26T14:47:32.725Z,12.70
2022-11-26T14:50:03.434Z,12.70
2022-11-26T14:52:37.011Z,12.70
2022-11-26T14:55:18.928Z,12.70
2022-11-26T14:57:50.690Z,12.70
2022-11-26T15:00:25.931Z,12.70
2022-11-26T15:02:53.315Z,12.70
2022-11-26T15:05:34.067Z,12.70
2022-11-26T15:08:00.841Z,12.80
2022-11-26T15:10:33.216Z,12.80
2022-11-26T15:13:06.509Z,12.80
2022-11-26T15:15:33.402Z,12.80
2022-11-26T15:18:05.630Z,12.80
2022-11-26T15:20:33.783Z,12.80
2022-11-26T15:23:03.758Z,12.80
2022-11-26T15:25:34.359Z,12.80
2022-11-26T15:28:06.275Z,12.80
2022-11-26T15:30:36.607Z,12.80
2022-11-26T15:33:10.884Z,12.90
2022-11-26T15:35:39.893Z,12.80
2022-11-26T15:38:14.688Z,12.90
2022-11-26T15:40:52.551Z,12.90
2022-11-26T15:43:27.232Z,12.90
2022-11-26T15:45:57.374Z,12.90
2022-11-26T15:48:51.554Z,12.90
2022-11-26T15:51:36.132Z,12.90
2022-11-26T15:54:20.296Z,12.90
2022-11-26T15:56:52.364Z,12.90
2022-11-26T15:59:20.771Z,12.90
2022-11-26T16:01:48.110Z,13.00
2022-11-26T16:04:50.886Z,12.90
2022-11-26T16:07:19.632Z,12.90
2022-11-26T16:09:48.361Z,13.00
2022-11-26T16:12:26.004Z,12.90
2022-11-26T16:14:52.875Z,13.00
2022-11-26T16:17:21.230Z,12.90
2022-11-26T16:19:59.354Z,13.00
2022-11-26T16:22:31.887Z,12.90
2022-11-26T16:25:23.514Z,13.00
2022-11-26T16:28:10.528Z,12.90
2022-11-26T16:30:38.645Z,12.90
2022-11-26T16:33:06.265Z,13.00
2022-11-26T16:35:48.937Z,13.00
2022-11-26T16:38:21.461Z,13.00
2022-11-26T16:40:49.287Z,12.90
2022-11-26T16:43:16.160Z,13.00
2022-11-26T16:45:43.184Z,13.00
2022-11-26T16:48:22.711Z,13.00
2022-11-26T16:50:49.863Z,12.90
2022-11-26T16:53:16.651Z,13.00
2022-11-26T16:55:43.564Z,12.90
2022-11-26T16:58:21.884Z,12.90
2022-11-26T17:00:51.129Z,13.00
2022-11-26T17:03:18.172Z,12.90
2022-11-26T17:05:45.109Z,12.90
2022-11-26T17:08:12.775Z,12.90
2022-11-26T17:10:40.318Z,12.90
2022-11-26T17:13:07.524Z,12.90
2022-11-26T17:15:34.853Z,12.90
2022-11-26T17:18:05.113Z,12.90
2022-11-26T17:20:32.005Z,12.90
2022-11-26T17:22:58.906Z,12.90
2022-11-26T17:25:25.825Z,12.90
2022-11-26T17:27:52.995Z,12.90
2022-11-26T17:30:24.497Z,12.90
2022-11-26T17:32:51.707Z,12.90
2022-11-26T17:35:18.836Z,12.90
2022-11-26T17:37:45.952Z,12.90
2022-11-26T17:40:21.831Z,12.90
2022-11-26T17:42:48.749Z,12.90
2022-11-26T17:45:16.923Z,12.90
2022-11-26T17:47:44.190Z,12.90
2022-11-26T17:50:26.409Z,12.80
2022-11-26T17:52:54.732Z,12.90
2022-11-26T17:55:26.900Z,12.80
2022-11-26T17:57:55.244Z,12.80
2022-11-26T18:00:25.884Z,12.80
2022-11-26T18:02:52.771Z,12.80
2022-11-26T18:05:19.742Z,12.80
2022-11-26T18:07:46.600Z,12.80
2022-11-26T18:10:16.091Z,12.80
2022-11-26T18:12:43.852Z,12.70
2022-11-26T18:15:25.299Z,12.70
2022-11-26T18:17:54.922Z,12.70
2022-11-26T18:20:25.762Z,12.60
2022-11-26T18:22:59.679Z,12.70
2022-11-26T18:25:27.889Z,12.60
2022-11-26T18:27:55.179Z,12.60
2022-11-26T18:30:22.150Z,12.60
2022-11-26T18:32:48.988Z,12.60
2022-11-26T18:35:15.915Z,12.60
2022-11-26T18:37:42.896Z,12.60
2022-11-26T18:40:16.830Z,12.60
2022-11-26T18:42:44.129Z,12.70
2022-11-26T18:45:14.999Z,12.70
2022-11-26T18:47:42.019Z,12.70
2022-11-26T18:50:09.542Z,12.70
2022-11-26T18:52:36.543Z,12.70
2022-11-26T18:55:07.370Z,12.70
2022-11-26T18:57:34.324Z,12.70
2022-11-26T19:00:01.457Z,12.70
2022-11-26T19:02:28.281Z,12.70
2022-11-26T19:04:55.090Z,12.70
2022-11-26T19:07:21.912Z,12.70
2022-11-26T19:09:48.852Z,12.70
2022-11-26T19:12:15.675Z,12.70
2022-11-26T19:14:42.611Z,12.70
2022-11-26T19:17:09.571Z,12.70
2022-11-26T19:19:38.409Z,12.70
2022-11-26T19:22:05.660Z,12.70
2022-11-26T19:24:32.509Z,12.60
2022-11-26T19:26:59.624Z,12.70
2022-11-26T19:29:26.447Z,12.60
2022-11-26T19:31:53.465Z,12.60
2022-11-26T19:34:21.899Z,12.60
2022-11-26T19:36:49.240Z,12.50
2022-11-26T19:39:16.802Z,12.50
2022-11-26T19:41:44.215Z,12.50
2022-11-26T19:44:12.165Z,12.50
2022-11-26T19:46:41.273Z,12.50
2022-11-26T19:49:11.815Z,12.50
2022-11-26T19:51:38.885Z,12.50
2022-11-26T19:54:06.144Z,12.50
2022-11-26T19:56:33.076Z,12.50
2022-11-26T19:59:02.208Z,12.50
2022-11-26T20:01:31.334Z,12.50
2022-11-26T20:04:00.749Z,12.50
2022-11-26T20:06:29.418Z,12.50
2022-11-26T20:08:58.412Z,12.50
2022-11-26T20:11:26.384Z,12.40
2022-11-26T20:13:53.578Z,12.40
2022-11-26T20:16:23.347Z,12.50
2022-11-26T20:18:51.123Z,12.40
2022-11-26T20:21:20.452Z,12.40
2022-11-26T20:23:48.410Z,12.40
2022-11-26T20:26:19.070Z,12.50
2022-11-26T20:28:46.253Z,12.50
2022-11-26T20:31:16.364Z,12.40
2022-11-26T20:33:46.560Z,12.50
2022-11-26T20:36:16.098Z,12.50
2022-11-26T20:38:43.479Z,12.50
2022-11-26T20:41:16.082Z,12.50
2022-11-26T20:43:43.188Z,12.50
2022-11-26T20:46:12.163Z,12.50
2022-11-26T20:48:40.646Z,12.50
2022-11-26T20:51:09.868Z,12.50
2022-11-26T20:53:38.905Z,12.50
2022-11-26T20:56:07.864Z,12.50
2022-11-26T20:58:35.818Z,12.50
2022-11-26T21:01:02.759Z,12.50
2022-11-26T21:03:30.981Z,12.50
2022-11-26T21:06:02.214Z,12.50
2022-11-26T21:08:29.182Z,12.50
2022-11-26T21:10:56.099Z,12.50
2022-11-26T21:13:23.016Z,12.50
2022-11-26T21:15:49.921Z,12.50
2022-11-26T21:18:17.010Z,12.50
2022-11-26T21:20:44.346Z,12.50
2022-11-26T21:23:13.015Z,12.50
2022-11-26T21:25:41.537Z,12.50
2022-11-26T21:28:09.377Z,12.60
2022-11-26T21:30:36.549Z,12.60
2022-11-26T21:33:08.994Z,12.60
2022-11-26T21:35:37.186Z,12.60
2022-11-26T21:38:05.807Z,12.60
2022-11-26T21:40:33.329Z,12.60
2022-11-26T21:43:00.112Z,12.60
2022-11-26T21:45:27.915Z,12.60
2022-11-26T21:47:54.950Z,12.60
2022-11-26T21:50:21.943Z,12.60
2022-11-26T21:52:48.808Z,12.60
2022-11-26T21:55:15.888Z,12.60
2022-11-26T21:57:42.663Z,12.60
2022-11-26T22:00:11.211Z,12.60
2022-11-26T22:02:38.095Z,12.60
2022-11-26T22:05:05.246Z,12.60
2022-11-26T22:07:32.298Z,12.60
2022-11-26T22:09:59.463Z,12.60
2022-11-26T22:12:26.302Z,12.60
2022-11-26T22:14:53.139Z,12.60
2022-11-26T22:17:19.924Z,12.60
2022-11-26T22:19:47.014Z,12.60
2022-11-26T22:22:13.808Z,12.60
2022-11-26T22:24:40.675Z,12.60
2022-11-26T22:27:07.448Z,12.60
2022-11-26T22:29:34.229Z,12.60
2022-11-26T22:32:01.086Z,12.60
2022-11-26T22:34:29.175Z,12.60
2022-11-26T22:36:56.103Z,12.60
2022-11-26T22:39:22.908Z,12.60
2022-11-26T22:41:49.802Z,12.60
2022-11-26T22:44:17.465Z,12.60
2022-11-26T22:46:44.770Z,12.50
2022-11-26T22:49:17.727Z,12.60
2022-11-26T22:51:44.704Z,12.50
2022-11-26T22:54:15.182Z,12.50
2022-11-26T22:56:41.984Z,12.50
2022-11-26T22:59:11.838Z,12.50
2022-11-26T23:01:38.693Z,12.50
2022-11-26T23:04:08.194Z,12.50
2022-11-26T23:06:36.080Z,12.40
2022-11-26T23:09:06.066Z,12.40
2022-11-26T23:11:37.066Z,12.40
2022-11-26T23:14:07.436Z,12.40
2022-11-26T23:16:36.266Z,12.40
2022-11-26T23:19:04.211Z,12.40
2022-11-26T23:21:38.461Z,12.40
2022-11-26T23:24:06.327Z,12.40
2022-11-26T23:26:34.507Z,12.40
2022-11-26T23:29:03.068Z,12.30
2022-11-26T23:31:32.993Z,12.30
2022-11-26T23:34:00.238Z,12.30
2022-11-26T23:36:28.263Z,12.30
2022-11-26T23:38:55.953Z,12.30
2022-11-26T23:41:23.249Z,12.30
2022-11-26T23:43:50.050Z,12.30
2022-11-26T23:46:25.291Z,12.20
2022-11-26T23:48:52.590Z,12.20
2022-11-26T23:51:22.921Z,12.30
2022-11-26T23:53:50.804Z,12.30
2022-11-26T23:56:23.278Z,12.20
2022-11-26T23:58:55.612Z,12.20
